sensor_id;sensor_type;location;lat;lon;timestamp;P1;durP1;ratioP1;P2;durP2;ratioP2
45208;SDS011;30951;43.994;26.260;2023-06-14T00:01:17;8.23;;;4.82;;
45208;SDS011;30951;43.994;26.260;2023-06-14T00:03:45;5.25;;;4.30;;
45208;SDS011;30951;43.994;26.260;2023-06-14T00:06:12;5.53;;;5.00;;
45208;SDS011;30951;43.994;26.260;2023-06-14T00:08:38;8.30;;;4.20;;
45208;SDS011;30951;43.994;26.260;2023-06-14T00:11:05;5.07;;;4.55;;
45208;SDS011;30951;43.994;26.260;2023-06-14T00:13:30;5.97;;;4.40;;
45208;SDS011;30951;43.994;26.260;2023-06-14T00:15:56;7.63;;;4.57;;
45208;SDS011;30951;43.994;26.260;2023-06-14T00:18:21;4.95;;;4.55;;
45208;SDS011;30951;43.994;26.260;2023-06-14T00:20:54;4.93;;;4.53;;
45208;SDS011;30951;43.994;26.260;2023-06-14T00:23:20;5.65;;;4.90;;
45208;SDS011;30951;43.994;26.260;2023-06-14T00:25:46;5.07;;;4.28;;
45208;SDS011;30951;43.994;26.260;2023-06-14T00:28:11;4.95;;;4.38;;
45208;SDS011;30951;43.994;26.260;2023-06-14T00:30:37;4.63;;;4.05;;
45208;SDS011;30951;43.994;26.260;2023-06-14T00:33:03;9.35;;;4.47;;
45208;SDS011;30951;43.994;26.260;2023-06-14T00:35:28;5.85;;;4.50;;
45208;SDS011;30951;43.994;26.260;2023-06-14T00:37:54;5.70;;;4.03;;
45208;SDS011;30951;43.994;26.260;2023-06-14T00:40:20;5.22;;;4.72;;
45208;SDS011;30951;43.994;26.260;2023-06-14T00:42:46;6.53;;;4.85;;
45208;SDS011;30951;43.994;26.260;2023-06-14T00:45:12;7.80;;;4.57;;
45208;SDS011;30951;43.994;26.260;2023-06-14T00:47:38;8.27;;;4.40;;
45208;SDS011;30951;43.994;26.260;2023-06-14T00:50:05;6.72;;;4.55;;
45208;SDS011;30951;43.994;26.260;2023-06-14T00:52:32;6.50;;;4.57;;
45208;SDS011;30951;43.994;26.260;2023-06-14T00:54:57;5.28;;;4.63;;
45208;SDS011;30951;43.994;26.260;2023-06-14T00:57:23;7.72;;;4.60;;
45208;SDS011;30951;43.994;26.260;2023-06-14T00:59:49;5.82;;;4.43;;
45208;SDS011;30951;43.994;26.260;2023-06-14T01:02:15;10.63;;;4.10;;
45208;SDS011;30951;43.994;26.260;2023-06-14T01:04:41;4.05;;;3.65;;
45208;SDS011;30951;43.994;26.260;2023-06-14T01:15:47;4.50;;;4.07;;
45208;SDS011;30951;43.994;26.260;2023-06-14T01:18:13;9.38;;;4.30;;
45208;SDS011;30951;43.994;26.260;2023-06-14T01:20:45;4.85;;;4.22;;
45208;SDS011;30951;43.994;26.260;2023-06-14T01:23:15;4.38;;;3.95;;
45208;SDS011;30951;43.994;26.260;2023-06-14T01:25:47;9.52;;;4.32;;
45208;SDS011;30951;43.994;26.260;2023-06-14T01:28:17;5.10;;;4.27;;
45208;SDS011;30951;43.994;26.260;2023-06-14T01:30:46;4.40;;;3.65;;
45208;SDS011;30951;43.994;26.260;2023-06-14T01:33:13;5.90;;;3.85;;
45208;SDS011;30951;43.994;26.260;2023-06-14T01:35:44;5.85;;;4.00;;
45208;SDS011;30951;43.994;26.260;2023-06-14T01:38:10;6.50;;;4.13;;
45208;SDS011;30951;43.994;26.260;2023-06-14T01:40:38;4.82;;;3.65;;
45208;SDS011;30951;43.994;26.260;2023-06-14T01:43:04;4.40;;;3.88;;
45208;SDS011;30951;43.994;26.260;2023-06-14T01:45:30;4.35;;;3.75;;
45208;SDS011;30951;43.994;26.260;2023-06-14T01:47:56;4.78;;;4.10;;
45208;SDS011;30951;43.994;26.260;2023-06-14T01:50:22;4.55;;;3.80;;
45208;SDS011;30951;43.994;26.260;2023-06-14T01:52:48;4.63;;;4.15;;
45208;SDS011;30951;43.994;26.260;2023-06-14T01:55:13;5.28;;;4.13;;
45208;SDS011;30951;43.994;26.260;2023-06-14T01:57:39;5.63;;;4.03;;
45208;SDS011;30951;43.994;26.260;2023-06-14T02:00:05;4.95;;;4.20;;
45208;SDS011;30951;43.994;26.260;2023-06-14T02:02:37;3.65;;;3.35;;
45208;SDS011;30951;43.994;26.260;2023-06-14T02:05:03;4.78;;;3.30;;
45208;SDS011;30951;43.994;26.260;2023-06-14T02:07:29;5.20;;;4.50;;
45208;SDS011;30951;43.994;26.260;2023-06-14T02:09:54;4.07;;;3.78;;
45208;SDS011;30951;43.994;26.260;2023-06-14T02:12:20;4.05;;;3.60;;
45208;SDS011;30951;43.994;26.260;2023-06-14T02:14:45;5.88;;;3.47;;
45208;SDS011;30951;43.994;26.260;2023-06-14T02:17:11;4.53;;;4.00;;
45208;SDS011;30951;43.994;26.260;2023-06-14T02:19:36;5.97;;;3.47;;
45208;SDS011;30951;43.994;26.260;2023-06-14T02:22:02;9.23;;;4.15;;
45208;SDS011;30951;43.994;26.260;2023-06-14T02:24:27;6.75;;;4.50;;
45208;SDS011;30951;43.994;26.260;2023-06-14T02:26:53;5.25;;;4.18;;
45208;SDS011;30951;43.994;26.260;2023-06-14T02:29:18;12.55;;;4.43;;
45208;SDS011;30951;43.994;26.260;2023-06-14T02:31:44;8.73;;;5.07;;
45208;SDS011;30951;43.994;26.260;2023-06-14T02:34:12;5.25;;;4.50;;
45208;SDS011;30951;43.994;26.260;2023-06-14T02:36:37;5.05;;;4.47;;
45208;SDS011;30951;43.994;26.260;2023-06-14T02:39:07;4.88;;;4.43;;
45208;SDS011;30951;43.994;26.260;2023-06-14T02:41:34;7.32;;;5.25;;
45208;SDS011;30951;43.994;26.260;2023-06-14T02:44:00;5.32;;;4.80;;
45208;SDS011;30951;43.994;26.260;2023-06-14T02:46:25;4.65;;;4.03;;
45208;SDS011;30951;43.994;26.260;2023-06-14T02:48:51;7.03;;;4.90;;
45208;SDS011;30951;43.994;26.260;2023-06-14T02:51:16;6.05;;;4.65;;
45208;SDS011;30951;43.994;26.260;2023-06-14T02:53:42;6.85;;;5.20;;
45208;SDS011;30951;43.994;26.260;2023-06-14T02:56:09;6.03;;;5.43;;
45208;SDS011;30951;43.994;26.260;2023-06-14T02:58:38;7.55;;;5.82;;
45208;SDS011;30951;43.994;26.260;2023-06-14T03:01:04;6.47;;;5.63;;
45208;SDS011;30951;43.994;26.260;2023-06-14T03:03:30;6.78;;;5.10;;
45208;SDS011;30951;43.994;26.260;2023-06-14T03:05:56;7.72;;;4.95;;
45208;SDS011;30951;43.994;26.260;2023-06-14T03:08:22;6.18;;;5.57;;
45208;SDS011;30951;43.994;26.260;2023-06-14T03:10:52;6.13;;;4.65;;
45208;SDS011;30951;43.994;26.260;2023-06-14T03:13:18;18.20;;;6.00;;
45208;SDS011;30951;43.994;26.260;2023-06-14T03:15:47;10.57;;;7.10;;
45208;SDS011;30951;43.994;26.260;2023-06-14T03:18:14;9.68;;;7.15;;
45208;SDS011;30951;43.994;26.260;2023-06-14T03:20:40;13.32;;;6.35;;
45208;SDS011;30951;43.994;26.260;2023-06-14T03:23:07;7.65;;;6.80;;
45208;SDS011;30951;43.994;26.260;2023-06-14T03:25:33;7.78;;;6.32;;
45208;SDS011;30951;43.994;26.260;2023-06-14T03:28:03;12.80;;;6.75;;
45208;SDS011;30951;43.994;26.260;2023-06-14T03:30:42;9.70;;;6.45;;
45208;SDS011;30951;43.994;26.260;2023-06-14T03:33:26;7.18;;;6.45;;
45208;SDS011;30951;43.994;26.260;2023-06-14T03:35:51;8.95;;;5.80;;
45208;SDS011;30951;43.994;26.260;2023-06-14T03:38:17;10.65;;;5.93;;
45208;SDS011;30951;43.994;26.260;2023-06-14T03:40:42;5.72;;;5.00;;
45208;SDS011;30951;43.994;26.260;2023-06-14T03:43:09;6.93;;;5.05;;
45208;SDS011;30951;43.994;26.260;2023-06-14T03:45:35;5.80;;;5.30;;
45208;SDS011;30951;43.994;26.260;2023-06-14T03:48:01;7.68;;;5.88;;
45208;SDS011;30951;43.994;26.260;2023-06-14T03:50:26;7.38;;;5.72;;
45208;SDS011;30951;43.994;26.260;2023-06-14T03:52:52;8.55;;;5.30;;
45208;SDS011;30951;43.994;26.260;2023-06-14T03:55:18;6.10;;;5.03;;
45208;SDS011;30951;43.994;26.260;2023-06-14T03:57:44;6.85;;;5.13;;
45208;SDS011;30951;43.994;26.260;2023-06-14T04:00:09;6.68;;;5.30;;
45208;SDS011;30951;43.994;26.260;2023-06-14T04:02:36;6.25;;;5.65;;
45208;SDS011;30951;43.994;26.260;2023-06-14T04:05:02;7.95;;;5.63;;
45208;SDS011;30951;43.994;26.260;2023-06-14T04:07:28;5.75;;;4.88;;
45208;SDS011;30951;43.994;26.260;2023-06-14T04:09:54;6.57;;;5.50;;
45208;SDS011;30951;43.994;26.260;2023-06-14T04:12:19;7.30;;;6.25;;
45208;SDS011;30951;43.994;26.260;2023-06-14T04:14:45;7.72;;;5.72;;
45208;SDS011;30951;43.994;26.260;2023-06-14T04:17:10;8.48;;;5.30;;
45208;SDS011;30951;43.994;26.260;2023-06-14T04:19:36;8.25;;;5.25;;
45208;SDS011;30951;43.994;26.260;2023-06-14T04:22:02;6.47;;;5.15;;
45208;SDS011;30951;43.994;26.260;2023-06-14T04:24:28;5.47;;;4.97;;
45208;SDS011;30951;43.994;26.260;2023-06-14T04:26:59;4.47;;;4.07;;
45208;SDS011;30951;43.994;26.260;2023-06-14T04:29:28;7.63;;;3.83;;
45208;SDS011;30951;43.994;26.260;2023-06-14T04:31:54;7.15;;;3.67;;
45208;SDS011;30951;43.994;26.260;2023-06-14T04:34:25;5.25;;;4.15;;
45208;SDS011;30951;43.994;26.260;2023-06-14T04:36:55;4.78;;;4.28;;
45208;SDS011;30951;43.994;26.260;2023-06-14T04:39:21;7.13;;;4.38;;
45208;SDS011;30951;43.994;26.260;2023-06-14T04:41:48;5.30;;;3.95;;
45208;SDS011;30951;43.994;26.260;2023-06-14T04:44:18;5.25;;;4.60;;
45208;SDS011;30951;43.994;26.260;2023-06-14T04:46:44;6.20;;;3.78;;
45208;SDS011;30951;43.994;26.260;2023-06-14T04:49:16;4.22;;;3.03;;
45208;SDS011;30951;43.994;26.260;2023-06-14T04:51:43;3.60;;;3.30;;
45208;SDS011;30951;43.994;26.260;2023-06-14T04:56:47;3.65;;;3.17;;
45208;SDS011;30951;43.994;26.260;2023-06-14T04:59:13;5.15;;;3.13;;
45208;SDS011;30951;43.994;26.260;2023-06-14T05:01:40;3.38;;;2.95;;
45208;SDS011;30951;43.994;26.260;2023-06-14T05:04:05;6.60;;;3.10;;
45208;SDS011;30951;43.994;26.260;2023-06-14T05:06:31;3.50;;;3.20;;
45208;SDS011;30951;43.994;26.260;2023-06-14T05:08:56;4.38;;;2.97;;
45208;SDS011;30951;43.994;26.260;2023-06-14T05:11:22;5.43;;;2.95;;
45208;SDS011;30951;43.994;26.260;2023-06-14T05:13:49;4.70;;;3.00;;
45208;SDS011;30951;43.994;26.260;2023-06-14T05:16:15;5.00;;;3.40;;
45208;SDS011;30951;43.994;26.260;2023-06-14T05:18:42;4.00;;;3.40;;
45208;SDS011;30951;43.994;26.260;2023-06-14T05:21:07;4.75;;;3.28;;
45208;SDS011;30951;43.994;26.260;2023-06-14T05:23:33;4.70;;;3.00;;
45208;SDS011;30951;43.994;26.260;2023-06-14T05:25:59;9.80;;;3.28;;
45208;SDS011;30951;43.994;26.260;2023-06-14T05:28:29;8.63;;;3.50;;
45208;SDS011;30951;43.994;26.260;2023-06-14T05:30:55;4.80;;;3.45;;
45208;SDS011;30951;43.994;26.260;2023-06-14T05:33:22;3.97;;;3.50;;
45208;SDS011;30951;43.994;26.260;2023-06-14T05:35:47;5.72;;;3.58;;
45208;SDS011;30951;43.994;26.260;2023-06-14T05:38:13;7.18;;;3.42;;
45208;SDS011;30951;43.994;26.260;2023-06-14T05:40:38;3.65;;;3.20;;
45208;SDS011;30951;43.994;26.260;2023-06-14T05:43:04;6.15;;;3.25;;
45208;SDS011;30951;43.994;26.260;2023-06-14T05:45:29;4.03;;;3.20;;
45208;SDS011;30951;43.994;26.260;2023-06-14T05:47:54;5.30;;;3.10;;
45208;SDS011;30951;43.994;26.260;2023-06-14T05:50:20;10.15;;;3.58;;
45208;SDS011;30951;43.994;26.260;2023-06-14T05:52:46;6.70;;;3.05;;
45208;SDS011;30951;43.994;26.260;2023-06-14T05:55:11;3.95;;;3.55;;
45208;SDS011;30951;43.994;26.260;2023-06-14T05:57:37;12.80;;;3.53;;
45208;SDS011;30951;43.994;26.260;2023-06-14T06:00:03;4.10;;;3.10;;
45208;SDS011;30951;43.994;26.260;2023-06-14T06:02:43;4.10;;;3.20;;
45208;SDS011;30951;43.994;26.260;2023-06-14T06:05:09;9.18;;;3.55;;
45208;SDS011;30951;43.994;26.260;2023-06-14T06:07:37;3.90;;;3.50;;
45208;SDS011;30951;43.994;26.260;2023-06-14T06:10:05;3.83;;;3.47;;
45208;SDS011;30951;43.994;26.260;2023-06-14T06:12:31;4.95;;;3.20;;
45208;SDS011;30951;43.994;26.260;2023-06-14T06:14:57;4.78;;;3.35;;
45208;SDS011;30951;43.994;26.260;2023-06-14T06:17:24;5.35;;;3.53;;
45208;SDS011;30951;43.994;26.260;2023-06-14T06:19:52;3.65;;;3.30;;
45208;SDS011;30951;43.994;26.260;2023-06-14T06:22:17;4.93;;;2.80;;
45208;SDS011;30951;43.994;26.260;2023-06-14T06:24:43;3.50;;;2.80;;
45208;SDS011;30951;43.994;26.260;2023-06-14T06:27:08;4.05;;;3.33;;
45208;SDS011;30951;43.994;26.260;2023-06-14T06:29:34;4.03;;;3.15;;
45208;SDS011;30951;43.994;26.260;2023-06-14T06:32:00;4.68;;;3.35;;
45208;SDS011;30951;43.994;26.260;2023-06-14T06:34:26;4.25;;;3.03;;
45208;SDS011;30951;43.994;26.260;2023-06-14T06:36:52;3.10;;;2.80;;
45208;SDS011;30951;43.994;26.260;2023-06-14T06:39:17;8.25;;;3.17;;
45208;SDS011;30951;43.994;26.260;2023-06-14T06:41:43;7.30;;;3.00;;
45208;SDS011;30951;43.994;26.260;2023-06-14T06:44:08;4.93;;;2.88;;
45208;SDS011;30951;43.994;26.260;2023-06-14T06:46:38;3.30;;;2.83;;
45208;SDS011;30951;43.994;26.260;2023-06-14T06:49:06;3.28;;;2.78;;
45208;SDS011;30951;43.994;26.260;2023-06-14T06:51:32;3.85;;;2.85;;
45208;SDS011;30951;43.994;26.260;2023-06-14T06:53:57;3.17;;;2.80;;
45208;SDS011;30951;43.994;26.260;2023-06-14T06:56:23;4.10;;;3.30;;
45208;SDS011;30951;43.994;26.260;2023-06-14T06:58:52;6.40;;;2.55;;
45208;SDS011;30951;43.994;26.260;2023-06-14T07:01:18;4.75;;;2.63;;
45208;SDS011;30951;43.994;26.260;2023-06-14T07:03:45;4.38;;;2.90;;
45208;SDS011;30951;43.994;26.260;2023-06-14T07:06:11;3.63;;;2.88;;
45208;SDS011;30951;43.994;26.260;2023-06-14T07:08:37;6.70;;;2.75;;
45208;SDS011;30951;43.994;26.260;2023-06-14T07:11:04;5.65;;;2.90;;
45208;SDS011;30951;43.994;26.260;2023-06-14T07:13:30;5.75;;;3.10;;
45208;SDS011;30951;43.994;26.260;2023-06-14T07:15:57;4.07;;;2.80;;
45208;SDS011;30951;43.994;26.260;2023-06-14T07:18:23;6.35;;;2.92;;
45208;SDS011;30951;43.994;26.260;2023-06-14T07:20:49;2.95;;;2.58;;
45208;SDS011;30951;43.994;26.260;2023-06-14T07:23:15;5.93;;;3.38;;
45208;SDS011;30951;43.994;26.260;2023-06-14T07:25:40;3.30;;;2.92;;
45208;SDS011;30951;43.994;26.260;2023-06-14T07:28:06;5.05;;;3.13;;
45208;SDS011;30951;43.994;26.260;2023-06-14T07:30:32;3.50;;;2.58;;
45208;SDS011;30951;43.994;26.260;2023-06-14T07:32:57;3.40;;;2.30;;
45208;SDS011;30951;43.994;26.260;2023-06-14T07:35:23;6.82;;;2.55;;
45208;SDS011;30951;43.994;26.260;2023-06-14T07:37:48;6.93;;;2.75;;
45208;SDS011;30951;43.994;26.260;2023-06-14T07:40:14;4.57;;;2.55;;
45208;SDS011;30951;43.994;26.260;2023-06-14T07:42:40;4.47;;;2.88;;
45208;SDS011;30951;43.994;26.260;2023-06-14T07:45:05;7.65;;;2.53;;
45208;SDS011;30951;43.994;26.260;2023-06-14T07:47:31;2.13;;;1.92;;
45208;SDS011;30951;43.994;26.260;2023-06-14T07:49:57;2.95;;;2.20;;
45208;SDS011;30951;43.994;26.260;2023-06-14T07:52:23;4.85;;;1.92;;
45208;SDS011;30951;43.994;26.260;2023-06-14T07:54:48;5.13;;;1.95;;
45208;SDS011;30951;43.994;26.260;2023-06-14T07:57:14;3.97;;;1.77;;
45208;SDS011;30951;43.994;26.260;2023-06-14T07:59:39;2.45;;;2.22;;
45208;SDS011;30951;43.994;26.260;2023-06-14T08:02:05;2.58;;;2.38;;
45208;SDS011;30951;43.994;26.260;2023-06-14T08:04:31;2.65;;;2.45;;
45208;SDS011;30951;43.994;26.260;2023-06-14T08:06:57;3.75;;;2.60;;
45208;SDS011;30951;43.994;26.260;2023-06-14T08:09:26;11.25;;;2.50;;
45208;SDS011;30951;43.994;26.260;2023-06-14T08:11:53;4.05;;;2.30;;
45208;SDS011;30951;43.994;26.260;2023-06-14T08:14:18;2.67;;;2.17;;
45208;SDS011;30951;43.994;26.260;2023-06-14T08:16:43;3.55;;;2.33;;
45208;SDS011;30951;43.994;26.260;2023-06-14T08:19:09;2.83;;;2.17;;
45208;SDS011;30951;43.994;26.260;2023-06-14T08:21:35;4.55;;;2.42;;
45208;SDS011;30951;43.994;26.260;2023-06-14T08:24:01;5.30;;;2.40;;
45208;SDS011;30951;43.994;26.260;2023-06-14T08:26:27;3.90;;;2.60;;
45208;SDS011;30951;43.994;26.260;2023-06-14T08:28:57;5.30;;;2.08;;
45208;SDS011;30951;43.994;26.260;2023-06-14T08:31:23;2.30;;;2.10;;
45208;SDS011;30951;43.994;26.260;2023-06-14T08:33:49;3.05;;;1.95;;
45208;SDS011;30951;43.994;26.260;2023-06-14T08:36:14;2.85;;;2.30;;
45208;SDS011;30951;43.994;26.260;2023-06-14T08:38:40;4.00;;;2.50;;
45208;SDS011;30951;43.994;26.260;2023-06-14T08:41:05;1.50;;;1.40;;
45208;SDS011;30951;43.994;26.260;2023-06-14T08:43:31;1.70;;;1.45;;
45208;SDS011;30951;43.994;26.260;2023-06-14T08:45:58;3.25;;;1.35;;
45208;SDS011;30951;43.994;26.260;2023-06-14T08:48:26;3.50;;;1.30;;
45208;SDS011;30951;43.994;26.260;2023-06-14T08:50:53;2.25;;;1.60;;
45208;SDS011;30951;43.994;26.260;2023-06-14T08:53:26;1.85;;;1.67;;
45208;SDS011;30951;43.994;26.260;2023-06-14T08:55:54;1.25;;;1.10;;
45208;SDS011;30951;43.994;26.260;2023-06-14T08:58:20;1.88;;;1.20;;
45208;SDS011;30951;43.994;26.260;2023-06-14T09:00:49;2.97;;;1.80;;
45208;SDS011;30951;43.994;26.260;2023-06-14T09:03:17;2.70;;;1.85;;
45208;SDS011;30951;43.994;26.260;2023-06-14T09:05:45;4.28;;;1.75;;
45208;SDS011;30951;43.994;26.260;2023-06-14T09:08:11;7.57;;;3.13;;
45208;SDS011;30951;43.994;26.260;2023-06-14T09:10:36;2.63;;;1.80;;
45208;SDS011;30951;43.994;26.260;2023-06-14T09:13:02;3.20;;;1.75;;
45208;SDS011;30951;43.994;26.260;2023-06-14T09:15:29;4.65;;;2.00;;
45208;SDS011;30951;43.994;26.260;2023-06-14T09:17:55;5.20;;;2.60;;
45208;SDS011;30951;43.994;26.260;2023-06-14T09:20:21;3.30;;;2.00;;
45208;SDS011;30951;43.994;26.260;2023-06-14T09:22:49;2.38;;;2.17;;
45208;SDS011;30951;43.994;26.260;2023-06-14T09:25:14;3.67;;;2.42;;
45208;SDS011;30951;43.994;26.260;2023-06-14T09:27:41;2.88;;;2.13;;
45208;SDS011;30951;43.994;26.260;2023-06-14T09:30:08;8.93;;;2.22;;
45208;SDS011;30951;43.994;26.260;2023-06-14T09:32:38;3.55;;;2.15;;
45208;SDS011;30951;43.994;26.260;2023-06-14T09:35:07;1.98;;;1.77;;
45208;SDS011;30951;43.994;26.260;2023-06-14T09:37:33;3.88;;;1.83;;
45208;SDS011;30951;43.994;26.260;2023-06-14T09:39:59;3.92;;;2.03;;
45208;SDS011;30951;43.994;26.260;2023-06-14T09:42:25;2.55;;;1.73;;
45208;SDS011;30951;43.994;26.260;2023-06-14T09:44:51;2.30;;;2.03;;
45208;SDS011;30951;43.994;26.260;2023-06-14T09:47:19;2.13;;;1.70;;
45208;SDS011;30951;43.994;26.260;2023-06-14T09:49:44;3.15;;;2.22;;
45208;SDS011;30951;43.994;26.260;2023-06-14T09:52:13;4.03;;;2.15;;
45208;SDS011;30951;43.994;26.260;2023-06-14T09:54:43;2.30;;;2.10;;
45208;SDS011;30951;43.994;26.260;2023-06-14T09:57:21;5.80;;;2.15;;
45208;SDS011;30951;43.994;26.260;2023-06-14T09:59:48;4.25;;;1.92;;
45208;SDS011;30951;43.994;26.260;2023-06-14T10:04:47;2.92;;;1.52;;
45208;SDS011;30951;43.994;26.260;2023-06-14T10:07:32;3.08;;;1.83;;
45208;SDS011;30951;43.994;26.260;2023-06-14T10:10:25;2.15;;;1.95;;
45208;SDS011;30951;43.994;26.260;2023-06-14T10:12:51;4.35;;;2.28;;
45208;SDS011;30951;43.994;26.260;2023-06-14T10:15:19;2.33;;;1.80;;
45208;SDS011;30951;43.994;26.260;2023-06-14T10:20:25;3.88;;;1.80;;
45208;SDS011;30951;43.994;26.260;2023-06-14T10:23:19;2.25;;;2.00;;
45208;SDS011;30951;43.994;26.260;2023-06-14T10:25:49;3.63;;;1.95;;
45208;SDS011;30951;43.994;26.260;2023-06-14T10:28:19;3.55;;;3.25;;
45208;SDS011;30951;43.994;26.260;2023-06-14T10:31:08;3.03;;;1.80;;
45208;SDS011;30951;43.994;26.260;2023-06-14T10:33:36;3.50;;;2.10;;
45208;SDS011;30951;43.994;26.260;2023-06-14T10:36:08;2.97;;;2.00;;
45208;SDS011;30951;43.994;26.260;2023-06-14T10:41:38;4.07;;;2.00;;
45208;SDS011;30951;43.994;26.260;2023-06-14T10:46:39;2.97;;;2.10;;
45208;SDS011;30951;43.994;26.260;2023-06-14T10:49:05;2.67;;;2.10;;
45208;SDS011;30951;43.994;26.260;2023-06-14T10:51:44;7.75;;;2.25;;
45208;SDS011;30951;43.994;26.260;2023-06-14T10:54:12;2.78;;;2.58;;
45208;SDS011;30951;43.994;26.260;2023-06-14T10:57:02;2.85;;;2.40;;
45208;SDS011;30951;43.994;26.260;2023-06-14T10:59:26;6.03;;;4.25;;
45208;SDS011;30951;43.994;26.260;2023-06-14T11:12:27;6.75;;;4.20;;
45208;SDS011;30951;43.994;26.260;2023-06-14T11:14:53;5.28;;;4.20;;
45208;SDS011;30951;43.994;26.260;2023-06-14T11:17:18;5.00;;;2.90;;
45208;SDS011;30951;43.994;26.260;2023-06-14T11:19:45;4.85;;;3.75;;
45208;SDS011;30951;43.994;26.260;2023-06-14T11:22:10;5.38;;;4.35;;
45208;SDS011;30951;43.994;26.260;2023-06-14T11:24:36;7.68;;;4.68;;
45208;SDS011;30951;43.994;26.260;2023-06-14T11:27:02;4.70;;;4.18;;
45208;SDS011;30951;43.994;26.260;2023-06-14T11:29:28;7.55;;;4.18;;
45208;SDS011;30951;43.994;26.260;2023-06-14T11:31:54;8.95;;;4.22;;
45208;SDS011;30951;43.994;26.260;2023-06-14T11:34:19;8.23;;;5.05;;
45208;SDS011;30951;43.994;26.260;2023-06-14T11:36:45;8.38;;;5.00;;
45208;SDS011;30951;43.994;26.260;2023-06-14T11:39:12;4.07;;;3.55;;
45208;SDS011;30951;43.994;26.260;2023-06-14T11:41:39;4.13;;;3.30;;
45208;SDS011;30951;43.994;26.260;2023-06-14T11:44:06;10.20;;;3.35;;
45208;SDS011;30951;43.994;26.260;2023-06-14T11:46:32;6.13;;;3.00;;
45208;SDS011;30951;43.994;26.260;2023-06-14T11:48:58;5.70;;;3.50;;
45208;SDS011;30951;43.994;26.260;2023-06-14T11:51:23;3.90;;;3.50;;
45208;SDS011;30951;43.994;26.260;2023-06-14T11:53:50;4.50;;;3.45;;
45208;SDS011;30951;43.994;26.260;2023-06-14T11:56:15;4.68;;;3.15;;
45208;SDS011;30951;43.994;26.260;2023-06-14T11:58:42;2.92;;;2.50;;
45208;SDS011;30951;43.994;26.260;2023-06-14T12:01:08;2.28;;;2.00;;
45208;SDS011;30951;43.994;26.260;2023-06-14T12:03:34;2.97;;;2.25;;
45208;SDS011;30951;43.994;26.260;2023-06-14T12:08:36;1.92;;;1.70;;
45208;SDS011;30951;43.994;26.260;2023-06-14T12:11:11;2.22;;;2.03;;
45208;SDS011;30951;43.994;26.260;2023-06-14T12:13:41;4.65;;;2.13;;
45208;SDS011;30951;43.994;26.260;2023-06-14T12:16:08;2.05;;;1.63;;
45208;SDS011;30951;43.994;26.260;2023-06-14T12:18:35;5.38;;;1.73;;
45208;SDS011;30951;43.994;26.260;2023-06-14T12:21:01;1.77;;;1.65;;
45208;SDS011;30951;43.994;26.260;2023-06-14T12:23:43;3.30;;;1.95;;
45208;SDS011;30951;43.994;26.260;2023-06-14T12:26:15;3.00;;;2.08;;
45208;SDS011;30951;43.994;26.260;2023-06-14T12:28:42;2.92;;;1.90;;
45208;SDS011;30951;43.994;26.260;2023-06-14T12:31:10;2.00;;;1.80;;
45208;SDS011;30951;43.994;26.260;2023-06-14T12:33:37;2.45;;;1.70;;
45208;SDS011;30951;43.994;26.260;2023-06-14T12:36:03;3.42;;;1.95;;
45208;SDS011;30951;43.994;26.260;2023-06-14T12:38:30;2.03;;;1.80;;
45208;SDS011;30951;43.994;26.260;2023-06-14T12:40:55;7.55;;;1.52;;
45208;SDS011;30951;43.994;26.260;2023-06-14T12:43:22;1.88;;;1.60;;
45208;SDS011;30951;43.994;26.260;2023-06-14T12:45:48;1.80;;;1.70;;
45208;SDS011;30951;43.994;26.260;2023-06-14T12:48:14;3.58;;;2.10;;
45208;SDS011;30951;43.994;26.260;2023-06-14T12:50:40;2.15;;;1.90;;
45208;SDS011;30951;43.994;26.260;2023-06-14T12:53:06;6.57;;;1.88;;
45208;SDS011;30951;43.994;26.260;2023-06-14T12:55:32;3.10;;;2.10;;
45208;SDS011;30951;43.994;26.260;2023-06-14T12:57:57;3.30;;;1.60;;
45208;SDS011;30951;43.994;26.260;2023-06-14T13:00:23;2.47;;;1.88;;
45208;SDS011;30951;43.994;26.260;2023-06-14T13:02:50;2.17;;;1.98;;
45208;SDS011;30951;43.994;26.260;2023-06-14T13:05:17;4.88;;;1.85;;
45208;SDS011;30951;43.994;26.260;2023-06-14T13:07:42;3.58;;;1.65;;
45208;SDS011;30951;43.994;26.260;2023-06-14T13:10:08;3.10;;;1.90;;
45208;SDS011;30951;43.994;26.260;2023-06-14T13:12:34;4.32;;;2.30;;
45208;SDS011;30951;43.994;26.260;2023-06-14T13:14:59;3.92;;;2.47;;
45208;SDS011;30951;43.994;26.260;2023-06-14T13:17:25;2.63;;;1.70;;
45208;SDS011;30951;43.994;26.260;2023-06-14T13:19:51;1.83;;;1.70;;
45208;SDS011;30951;43.994;26.260;2023-06-14T13:22:16;2.00;;;1.88;;
45208;SDS011;30951;43.994;26.260;2023-06-14T13:24:42;3.70;;;1.77;;
45208;SDS011;30951;43.994;26.260;2023-06-14T13:27:07;2.85;;;1.73;;
45208;SDS011;30951;43.994;26.260;2023-06-14T13:29:33;1.80;;;1.67;;
45208;SDS011;30951;43.994;26.260;2023-06-14T13:32:01;1.55;;;1.30;;
45208;SDS011;30951;43.994;26.260;2023-06-14T13:34:27;3.92;;;2.08;;
45208;SDS011;30951;43.994;26.260;2023-06-14T13:36:52;2.13;;;1.60;;
45208;SDS011;30951;43.994;26.260;2023-06-14T13:39:18;1.95;;;1.83;;
45208;SDS011;30951;43.994;26.260;2023-06-14T13:41:44;5.15;;;2.05;;
45208;SDS011;30951;43.994;26.260;2023-06-14T13:44:10;2.72;;;1.90;;
45208;SDS011;30951;43.994;26.260;2023-06-14T13:46:40;1.75;;;1.55;;
45208;SDS011;30951;43.994;26.260;2023-06-14T13:49:07;3.88;;;2.10;;
45208;SDS011;30951;43.994;26.260;2023-06-14T13:51:33;7.95;;;1.75;;
45208;SDS011;30951;43.994;26.260;2023-06-14T13:54:00;1.98;;;1.77;;
45208;SDS011;30951;43.994;26.260;2023-06-14T13:56:26;2.28;;;1.83;;
45208;SDS011;30951;43.994;26.260;2023-06-14T13:58:51;1.88;;;1.63;;
45208;SDS011;30951;43.994;26.260;2023-06-14T14:01:17;2.42;;;2.17;;
45208;SDS011;30951;43.994;26.260;2023-06-14T14:03:44;2.33;;;2.13;;
45208;SDS011;30951;43.994;26.260;2023-06-14T14:06:14;2.13;;;1.92;;
45208;SDS011;30951;43.994;26.260;2023-06-14T14:08:40;4.18;;;1.92;;
45208;SDS011;30951;43.994;26.260;2023-06-14T14:11:06;2.38;;;1.98;;
45208;SDS011;30951;43.994;26.260;2023-06-14T14:13:32;2.20;;;2.00;;
45208;SDS011;30951;43.994;26.260;2023-06-14T14:15:59;2.45;;;1.77;;
45208;SDS011;30951;43.994;26.260;2023-06-14T14:18:24;4.32;;;2.10;;
45208;SDS011;30951;43.994;26.260;2023-06-14T14:20:50;1.85;;;1.75;;
45208;SDS011;30951;43.994;26.260;2023-06-14T14:23:15;2.45;;;2.22;;
45208;SDS011;30951;43.994;26.260;2023-06-14T14:25:41;2.10;;;1.90;;
45208;SDS011;30951;43.994;26.260;2023-06-14T14:28:07;2.67;;;2.25;;
45208;SDS011;30951;43.994;26.260;2023-06-14T14:30:32;2.47;;;1.50;;
45208;SDS011;30951;43.994;26.260;2023-06-14T14:32:58;1.73;;;1.63;;
45208;SDS011;30951;43.994;26.260;2023-06-14T14:35:24;2.40;;;2.20;;
45208;SDS011;30951;43.994;26.260;2023-06-14T14:37:55;2.00;;;1.90;;
45208;SDS011;30951;43.994;26.260;2023-06-14T14:40:21;2.67;;;2.00;;
45208;SDS011;30951;43.994;26.260;2023-06-14T14:42:46;1.90;;;1.70;;
45208;SDS011;30951;43.994;26.260;2023-06-14T14:45:12;2.58;;;1.75;;
45208;SDS011;30951;43.994;26.260;2023-06-14T14:47:37;4.10;;;2.10;;
45208;SDS011;30951;43.994;26.260;2023-06-14T14:50:03;2.60;;;2.00;;
45208;SDS011;30951;43.994;26.260;2023-06-14T14:52:28;3.60;;;2.00;;
45208;SDS011;30951;43.994;26.260;2023-06-14T14:54:54;3.63;;;2.03;;
45208;SDS011;30951;43.994;26.260;2023-06-14T14:57:20;1.92;;;1.83;;
45208;SDS011;30951;43.994;26.260;2023-06-14T14:59:46;2.00;;;1.80;;
45208;SDS011;30951;43.994;26.260;2023-06-14T15:02:12;2.17;;;1.92;;
45208;SDS011;30951;43.994;26.260;2023-06-14T15:04:37;4.32;;;2.05;;
45208;SDS011;30951;43.994;26.260;2023-06-14T15:07:03;3.25;;;2.00;;